sensor_id;sensor_type;location;lat;lon;timestamp;pressure;altitude;pressure_sealevel;temperature;humidity
9139;BME280;4604;48.616;9.548;2022-10-23T00:01:46;96961.34;;;14.07;98.23
9139;BME280;4604;48.616;9.548;2022-10-23T00:04:16;96977.94;;;14.09;98.20
9139;BME280;4604;48.616;9.548;2022-10-23T00:06:44;96934.53;;;13.84;97.88
9139;BME280;4604;48.616;9.548;2022-10-23T00:09:13;96967.63;;;14.06;97.64
9139;BME280;4604;48.616;9.548;2022-10-23T00:11:42;96988.91;;;14.15;98.02
9139;BME280;4604;48.616;9.548;2022-10-23T00:14:12;96944.41;;;14.00;96.97
9139;BME280;4604;48.616;9.548;2022-10-23T00:16:42;96920.13;;;13.87;96.77
9139;BME280;4604;48.616;9.548;2022-10-23T00:19:10;96970.00;;;14.18;96.75
9139;BME280;4604;48.616;9.548;2022-10-23T00:21:38;96916.78;;;13.85;96.54
9139;BME280;4604;48.616;9.548;2022-10-23T00:24:06;96924.75;;;13.85;96.96
9139;BME280;4604;48.616;9.548;2022-10-23T00:26:34;96968.03;;;14.28;95.08
9139;BME280;4604;48.616;9.548;2022-10-23T00:29:02;96933.47;;;14.03;94.60
9139;BME280;4604;48.616;9.548;2022-10-23T00:31:29;96969.53;;;14.30;93.96
9139;BME280;4604;48.616;9.548;2022-10-23T00:33:56;96932.31;;;14.14;93.30
9139;BME280;4604;48.616;9.548;2022-10-23T00:36:23;96903.72;;;13.83;93.57
9139;BME280;4604;48.616;9.548;2022-10-23T00:38:51;96926.47;;;13.94;93.84
9139;BME280;4604;48.616;9.548;2022-10-23T00:41:20;96966.34;;;14.19;93.22
9139;BME280;4604;48.616;9.548;2022-10-23T00:44:02;96968.84;;;14.20;93.06
9139;BME280;4604;48.616;9.548;2022-10-23T00:46:30;96900.41;;;13.89;91.37
9139;BME280;4604;48.616;9.548;2022-10-23T00:48:58;96943.13;;;14.21;91.07
9139;BME280;4604;48.616;9.548;2022-10-23T00:51:28;96895.78;;;13.91;91.19
9139;BME280;4604;48.616;9.548;2022-10-23T00:54:01;96958.94;;;14.30;91.00
9139;BME280;4604;48.616;9.548;2022-10-23T00:56:32;96958.09;;;14.30;91.09
9139;BME280;4604;48.616;9.548;2022-10-23T00:59:03;96930.47;;;14.06;90.21
9139;BME280;4604;48.616;9.548;2022-10-23T01:01:29;96922.84;;;14.03;90.02
9139;BME280;4604;48.616;9.548;2022-10-23T01:03:56;96954.63;;;14.38;89.25
9139;BME280;4604;48.616;9.548;2022-10-23T01:06:32;96950.66;;;14.42;89.10
9139;BME280;4604;48.616;9.548;2022-10-23T01:09:09;96961.16;;;14.51;88.65
9139;BME280;4604;48.616;9.548;2022-10-23T01:11:41;96952.66;;;14.48;89.28
9139;BME280;4604;48.616;9.548;2022-10-23T01:14:16;96934.56;;;14.43;88.75
9139;BME280;4604;48.616;9.548;2022-10-23T01:16:53;96931.75;;;14.37;88.78
9139;BME280;4604;48.616;9.548;2022-10-23T01:19:35;96951.00;;;14.47;88.69
9139;BME280;4604;48.616;9.548;2022-10-23T01:22:10;96942.50;;;14.43;88.98
9139;BME280;4604;48.616;9.548;2022-10-23T01:24:45;96931.06;;;14.43;87.67
9139;BME280;4604;48.616;9.548;2022-10-23T01:27:20;96933.56;;;14.44;87.77
9139;BME280;4604;48.616;9.548;2022-10-23T01:29:58;96910.16;;;14.31;86.95
9139;BME280;4604;48.616;9.548;2022-10-23T01:32:34;96924.16;;;14.58;86.28
9139;BME280;4604;48.616;9.548;2022-10-23T01:35:06;96942.44;;;14.69;86.39
9139;BME280;4604;48.616;9.548;2022-10-23T01:37:39;96947.25;;;14.74;86.21
9139;BME280;4604;48.616;9.548;2022-10-23T01:40:12;96941.59;;;14.77;86.37
9139;BME280;4604;48.616;9.548;2022-10-23T01:42:47;96934.97;;;14.73;86.49
9139;BME280;4604;48.616;9.548;2022-10-23T01:45:20;96939.44;;;14.72;86.32
9139;BME280;4604;48.616;9.548;2022-10-23T01:47:49;96940.59;;;14.70;86.66
9139;BME280;4604;48.616;9.548;2022-10-23T01:50:19;96932.81;;;14.68;86.43
9139;BME280;4604;48.616;9.548;2022-10-23T01:52:48;96929.63;;;14.65;86.32
9139;BME280;4604;48.616;9.548;2022-10-23T01:55:15;96925.81;;;14.67;86.27
9139;BME280;4604;48.616;9.548;2022-10-23T01:57:44;96923.16;;;14.59;87.31
9139;BME280;4604;48.616;9.548;2022-10-23T02:00:15;96927.25;;;14.37;89.20
9139;BME280;4604;48.616;9.548;2022-10-23T02:02:43;96918.28;;;14.22;90.39
9139;BME280;4604;48.616;9.548;2022-10-23T02:05:13;96915.22;;;14.00;92.31
9139;BME280;4604;48.616;9.548;2022-10-23T02:07:41;96903.66;;;13.75;93.70
9139;BME280;4604;48.616;9.548;2022-10-23T02:10:11;96888.00;;;13.56;94.72
9139;BME280;4604;48.616;9.548;2022-10-23T02:12:57;96872.06;;;13.21;96.98
9139;BME280;4604;48.616;9.548;2022-10-23T02:15:29;96876.50;;;13.13;97.53
9139;BME280;4604;48.616;9.548;2022-10-23T02:18:03;96861.63;;;12.94;99.23
9139;BME280;4604;48.616;9.548;2022-10-23T02:20:36;96877.47;;;12.85;100.00
9139;BME280;4604;48.616;9.548;2022-10-23T02:23:12;96845.72;;;12.68;100.00
9139;BME280;4604;48.616;9.548;2022-10-23T02:25:45;96902.03;;;12.96;100.00
9139;BME280;4604;48.616;9.548;2022-10-23T02:28:18;96845.38;;;12.45;100.00
9139;BME280;4604;48.616;9.548;2022-10-23T02:30:46;96892.03;;;12.63;100.00
9139;BME280;4604;48.616;9.548;2022-10-23T02:33:17;96867.53;;;12.43;100.00
9139;BME280;4604;48.616;9.548;2022-10-23T02:35:45;96906.41;;;12.61;100.00
9139;BME280;4604;48.616;9.548;2022-10-23T02:38:32;96897.69;;;12.51;100.00
9139;BME280;4604;48.616;9.548;2022-10-23T02:41:05;96896.19;;;12.48;100.00
9139;BME280;4604;48.616;9.548;2022-10-23T02:43:40;96890.97;;;12.38;100.00
9139;BME280;4604;48.616;9.548;2022-10-23T02:46:18;96888.41;;;12.29;100.00
9139;BME280;4604;48.616;9.548;2022-10-23T02:48:53;96860.41;;;12.08;100.00
9139;BME280;4604;48.616;9.548;2022-10-23T02:51:31;96859.16;;;12.12;100.00
9139;BME280;4604;48.616;9.548;2022-10-23T02:54:02;96819.91;;;11.90;100.00
9139;BME280;4604;48.616;9.548;2022-10-23T02:56:36;96810.31;;;11.89;100.00
9139;BME280;4604;48.616;9.548;2022-10-23T02:59:09;96839.13;;;12.10;100.00
9139;BME280;4604;48.616;9.548;2022-10-23T03:01:45;96859.34;;;12.19;100.00
9139;BME280;4604;48.616;9.548;2022-10-23T03:04:17;96846.50;;;12.06;100.00
9139;BME280;4604;48.616;9.548;2022-10-23T03:06:48;96862.47;;;12.14;100.00
9139;BME280;4604;48.616;9.548;2022-10-23T03:09:18;96813.19;;;11.68;100.00
9139;BME280;4604;48.616;9.548;2022-10-23T03:11:52;96853.38;;;11.99;100.00
9139;BME280;4604;48.616;9.548;2022-10-23T03:14:20;96863.47;;;11.86;100.00
9139;BME280;4604;48.616;9.548;2022-10-23T03:16:47;96863.09;;;11.81;100.00
9139;BME280;4604;48.616;9.548;2022-10-23T03:19:14;96831.41;;;11.71;100.00
9139;BME280;4604;48.616;9.548;2022-10-23T03:21:40;96791.78;;;11.43;100.00
9139;BME280;4604;48.616;9.548;2022-10-23T03:24:07;96804.84;;;11.45;100.00
9139;BME280;4604;48.616;9.548;2022-10-23T03:26:36;96799.88;;;11.42;100.00
9139;BME280;4604;48.616;9.548;2022-10-23T03:29:04;96829.28;;;11.56;100.00
9139;BME280;4604;48.616;9.548;2022-10-23T03:31:34;96840.38;;;11.60;100.00
9139;BME280;4604;48.616;9.548;2022-10-23T03:34:01;96823.75;;;11.50;100.00
9139;BME280;4604;48.616;9.548;2022-10-23T03:36:28;96822.75;;;11.51;100.00
9139;BME280;4604;48.616;9.548;2022-10-23T03:38:55;96816.25;;;11.45;100.00
9139;BME280;4604;48.616;9.548;2022-10-23T03:41:26;96829.31;;;11.47;100.00
9139;BME280;4604;48.616;9.548;2022-10-23T03:43:52;96813.69;;;11.26;100.00
9139;BME280;4604;48.616;9.548;2022-10-23T03:46:21;96833.91;;;11.45;100.00
9139;BME280;4604;48.616;9.548;2022-10-23T03:48:50;96780.22;;;11.17;100.00
9139;BME280;4604;48.616;9.548;2022-10-23T03:51:21;96777.34;;;11.38;100.00
9139;BME280;4604;48.616;9.548;2022-10-23T03:53:48;96795.97;;;11.36;100.00
9139;BME280;4604;48.616;9.548;2022-10-23T03:56:15;96836.47;;;11.64;100.00
9139;BME280;4604;48.616;9.548;2022-10-23T03:58:44;96790.69;;;11.36;100.00
9139;BME280;4604;48.616;9.548;2022-10-23T04:01:17;96793.22;;;11.38;100.00
9139;BME280;4604;48.616;9.548;2022-10-23T04:03:44;96793.75;;;11.41;100.00
9139;BME280;4604;48.616;9.548;2022-10-23T04:06:14;96804.06;;;11.62;100.00
9139;BME280;4604;48.616;9.548;2022-10-23T04:08:43;96764.81;;;11.40;100.00
9139;BME280;4604;48.616;9.548;2022-10-23T04:11:10;96832.09;;;11.73;100.00
9139;BME280;4604;48.616;9.548;2022-10-23T04:13:39;96765.13;;;11.37;100.00
9139;BME280;4604;48.616;9.548;2022-10-23T04:16:11;96813.56;;;11.55;100.00
9139;BME280;4604;48.616;9.548;2022-10-23T04:18:43;96761.56;;;11.28;100.00
9139;BME280;4604;48.616;9.548;2022-10-23T04:21:14;96768.44;;;11.39;100.00
9139;BME280;4604;48.616;9.548;2022-10-23T04:23:48;96786.88;;;11.48;100.00
9139;BME280;4604;48.616;9.548;2022-10-23T04:26:15;96766.53;;;11.31;100.00
9139;BME280;4604;48.616;9.548;2022-10-23T04:28:44;96780.88;;;11.28;100.00
9139;BME280;4604;48.616;9.548;2022-10-23T04:31:12;96817.47;;;11.51;100.00
9139;BME280;4604;48.616;9.548;2022-10-23T04:33:41;96778.84;;;11.22;100.00
9139;BME280;4604;48.616;9.548;2022-10-23T04:36:09;96825.13;;;11.54;100.00
9139;BME280;4604;48.616;9.548;2022-10-23T04:38:40;96819.13;;;11.52;100.00
9139;BME280;4604;48.616;9.548;2022-10-23T04:41:09;96821.19;;;11.58;100.00
9139;BME280;4604;48.616;9.548;2022-10-23T04:43:36;96854.34;;;11.70;100.00
9139;BME280;4604;48.616;9.548;2022-10-23T04:46:03;96825.88;;;11.64;100.00
9139;BME280;4604;48.616;9.548;2022-10-23T04:48:30;96852.84;;;11.68;100.00
9139;BME280;4604;48.616;9.548;2022-10-23T04:50:58;96851.97;;;11.77;100.00
9139;BME280;4604;48.616;9.548;2022-10-23T04:53:27;96835.41;;;11.75;100.00
9139;BME280;4604;48.616;9.548;2022-10-23T04:55:57;96758.66;;;11.49;100.00
9139;BME280;4604;48.616;9.548;2022-10-23T04:58:26;96792.66;;;11.62;100.00
9139;BME280;4604;48.616;9.548;2022-10-23T05:00:54;96804.00;;;11.72;100.00
9139;BME280;4604;48.616;9.548;2022-10-23T05:03:24;96779.13;;;11.47;100.00
9139;BME280;4604;48.616;9.548;2022-10-23T05:05:53;96802.09;;;11.64;100.00
9139;BME280;4604;48.616;9.548;2022-10-23T05:08:21;96813.88;;;11.70;100.00
9139;BME280;4604;48.616;9.548;2022-10-23T05:10:50;96821.44;;;11.65;100.00
9139;BME280;4604;48.616;9.548;2022-10-23T05:13:22;96781.13;;;11.35;100.00
9139;BME280;4604;48.616;9.548;2022-10-23T05:15:50;96839.81;;;11.84;100.00
9139;BME280;4604;48.616;9.548;2022-10-23T05:18:20;96842.75;;;11.81;100.00
9139;BME280;4604;48.616;9.548;2022-10-23T05:20:52;96806.63;;;11.72;100.00
9139;BME280;4604;48.616;9.548;2022-10-23T05:23:21;96808.75;;;11.86;100.00
9139;BME280;4604;48.616;9.548;2022-10-23T05:25:51;96808.91;;;11.85;100.00
9139;BME280;4604;48.616;9.548;2022-10-23T05:28:20;96823.78;;;11.95;100.00
9139;BME280;4604;48.616;9.548;2022-10-23T05:30:47;96798.31;;;11.67;100.00
9139;BME280;4604;48.616;9.548;2022-10-23T05:33:14;96813.97;;;11.78;100.00
9139;BME280;4604;48.616;9.548;2022-10-23T05:35:44;96768.28;;;11.40;100.00
9139;BME280;4604;48.616;9.548;2022-10-23T05:38:12;96790.75;;;11.54;100.00
9139;BME280;4604;48.616;9.548;2022-10-23T05:40:39;96811.84;;;11.64;100.00
9139;BME280;4604;48.616;9.548;2022-10-23T05:43:06;96780.00;;;11.38;100.00
9139;BME280;4604;48.616;9.548;2022-10-23T05:45:36;96776.22;;;11.40;100.00
9139;BME280;4604;48.616;9.548;2022-10-23T05:48:04;96839.44;;;11.79;100.00
9139;BME280;4604;48.616;9.548;2022-10-23T05:50:30;96834.13;;;11.79;100.00
9139;BME280;4604;48.616;9.548;2022-10-23T05:53:00;96827.66;;;11.73;100.00
9139;BME280;4604;48.616;9.548;2022-10-23T05:55:27;96818.78;;;11.65;100.00
9139;BME280;4604;48.616;9.548;2022-10-23T05:57:54;96834.88;;;11.71;100.00
9139;BME280;4604;48.616;9.548;2022-10-23T06:00:20;96829.91;;;11.68;100.00
9139;BME280;4604;48.616;9.548;2022-10-23T06:02:48;96835.47;;;11.65;100.00
9139;BME280;4604;48.616;9.548;2022-10-23T06:05:15;96838.97;;;11.66;100.00
9139;BME280;4604;48.616;9.548;2022-10-23T06:07:42;96834.63;;;11.65;100.00
9139;BME280;4604;48.616;9.548;2022-10-23T06:10:09;96823.31;;;11.54;100.00
9139;BME280;4604;48.616;9.548;2022-10-23T06:12:35;96832.16;;;11.63;100.00
9139;BME280;4604;48.616;9.548;2022-10-23T06:15:03;96815.31;;;11.64;100.00
9139;BME280;4604;48.616;9.548;2022-10-23T06:17:30;96804.09;;;11.52;100.00
9139;BME280;4604;48.616;9.548;2022-10-23T06:19:58;96813.41;;;11.56;100.00
9139;BME280;4604;48.616;9.548;2022-10-23T06:22:27;96807.69;;;11.61;100.00
9139;BME280;4604;48.616;9.548;2022-10-23T06:24:53;96803.47;;;11.68;100.00
9139;BME280;4604;48.616;9.548;2022-10-23T06:27:21;96799.84;;;11.69;100.00
9139;BME280;4604;48.616;9.548;2022-10-23T06:29:48;96784.59;;;11.63;100.00
9139;BME280;4604;48.616;9.548;2022-10-23T06:32:14;96796.75;;;11.74;100.00
9139;BME280;4604;48.616;9.548;2022-10-23T06:34:41;96795.75;;;11.75;100.00
9139;BME280;4604;48.616;9.548;2022-10-23T06:37:09;96797.13;;;11.79;100.00
9139;BME280;4604;48.616;9.548;2022-10-23T06:39:36;96787.00;;;11.74;100.00
9139;BME280;4604;48.616;9.548;2022-10-23T06:42:04;96801.69;;;11.87;100.00
9139;BME280;4604;48.616;9.548;2022-10-23T06:44:32;96799.72;;;11.89;100.00
9139;BME280;4604;48.616;9.548;2022-10-23T06:46:58;96797.59;;;11.92;100.00
9139;BME280;4604;48.616;9.548;2022-10-23T06:49:26;96799.53;;;12.00;100.00
9139;BME280;4604;48.616;9.548;2022-10-23T06:51:53;96795.28;;;12.07;100.00
9139;BME280;4604;48.616;9.548;2022-10-23T06:54:21;96804.72;;;12.10;100.00
9139;BME280;4604;48.616;9.548;2022-10-23T06:56:47;96804.56;;;12.11;100.00
9139;BME280;4604;48.616;9.548;2022-10-23T06:59:14;96796.09;;;12.08;100.00
9139;BME280;4604;48.616;9.548;2022-10-23T07:01:41;96798.50;;;12.19;100.00
9139;BME280;4604;48.616;9.548;2022-10-23T07:04:07;96796.09;;;12.26;100.00
9139;BME280;4604;48.616;9.548;2022-10-23T07:06:34;96794.34;;;12.34;100.00
9139;BME280;4604;48.616;9.548;2022-10-23T07:09:00;96782.09;;;12.33;100.00
9139;BME280;4604;48.616;9.548;2022-10-23T07:11:28;96795.59;;;12.48;100.00
9139;BME280;4604;48.616;9.548;2022-10-23T07:13:55;96793.72;;;12.58;100.00
9139;BME280;4604;48.616;9.548;2022-10-23T07:16:22;96804.84;;;12.70;100.00
9139;BME280;4604;48.616;9.548;2022-10-23T07:18:55;96803.09;;;12.79;100.00
9139;BME280;4604;48.616;9.548;2022-10-23T07:21:23;96808.97;;;12.91;100.00
9139;BME280;4604;48.616;9.548;2022-10-23T07:23:50;96806.81;;;12.94;100.00
9139;BME280;4604;48.616;9.548;2022-10-23T07:26:17;96806.72;;;13.04;100.00
9139;BME280;4604;48.616;9.548;2022-10-23T07:28:47;96791.16;;;13.09;100.00
9139;BME280;4604;48.616;9.548;2022-10-23T07:31:15;96805.63;;;13.15;100.00
9139;BME280;4604;48.616;9.548;2022-10-23T07:33:42;96811.78;;;13.23;100.00
9139;BME280;4604;48.616;9.548;2022-10-23T07:36:09;96806.44;;;13.41;100.00
9139;BME280;4604;48.616;9.548;2022-10-23T07:38:35;96793.34;;;13.48;100.00
9139;BME280;4604;48.616;9.548;2022-10-23T07:41:02;96790.22;;;13.53;100.00
9139;BME280;4604;48.616;9.548;2022-10-23T07:43:29;96804.50;;;13.60;100.00
9139;BME280;4604;48.616;9.548;2022-10-23T07:45:57;96809.50;;;13.71;100.00
9139;BME280;4604;48.616;9.548;2022-10-23T07:48:24;96822.31;;;13.84;100.00
9139;BME280;4604;48.616;9.548;2022-10-23T07:50:52;96820.81;;;13.89;100.00
9139;BME280;4604;48.616;9.548;2022-10-23T07:53:22;96812.69;;;13.99;100.00
9139;BME280;4604;48.616;9.548;2022-10-23T07:55:53;96799.81;;;14.12;100.00
9139;BME280;4604;48.616;9.548;2022-10-23T07:58:19;96798.16;;;14.20;100.00
9139;BME280;4604;48.616;9.548;2022-10-23T08:00:47;96807.44;;;14.32;100.00
9139;BME280;4604;48.616;9.548;2022-10-23T08:03:19;96805.47;;;14.34;100.00
9139;BME280;4604;48.616;9.548;2022-10-23T08:05:46;96796.16;;;14.30;100.00
9139;BME280;4604;48.616;9.548;2022-10-23T08:08:13;96806.44;;;14.33;100.00
9139;BME280;4604;48.616;9.548;2022-10-23T08:10:39;96802.94;;;14.41;100.00
9139;BME280;4604;48.616;9.548;2022-10-23T08:13:10;96786.22;;;14.73;100.00
9139;BME280;4604;48.616;9.548;2022-10-23T08:15:37;96782.38;;;14.75;100.00
9139;BME280;4604;48.616;9.548;2022-10-23T08:18:04;96784.53;;;14.72;100.00
9139;BME280;4604;48.616;9.548;2022-10-23T08:20:37;96789.19;;;14.45;100.00
9139;BME280;4604;48.616;9.548;2022-10-23T08:23:03;96785.88;;;14.27;100.00
9139;BME280;4604;48.616;9.548;2022-10-23T08:25:30;96796.16;;;14.30;100.00
9139;BME280;4604;48.616;9.548;2022-10-23T08:27:57;96781.72;;;14.24;100.00
9139;BME280;4604;48.616;9.548;2022-10-23T08:30:23;96763.81;;;14.34;100.00
9139;BME280;4604;48.616;9.548;2022-10-23T08:32:50;96774.56;;;14.33;100.00
9139;BME280;4604;48.616;9.548;2022-10-23T08:35:17;96761.97;;;14.43;100.00
9139;BME280;4604;48.616;9.548;2022-10-23T08:37:45;96758.16;;;14.70;100.00
9139;BME280;4604;48.616;9.548;2022-10-23T08:40:14;96770.59;;;14.78;100.00
9139;BME280;4604;48.616;9.548;2022-10-23T08:42:42;96753.97;;;14.68;100.00
9139;BME280;4604;48.616;9.548;2022-10-23T08:45:25;96762.78;;;14.76;100.00
9139;BME280;4604;48.616;9.548;2022-10-23T08:47:57;96758.56;;;14.98;100.00
9139;BME280;4604;48.616;9.548;2022-10-23T08:50:29;96756.38;;;15.10;100.00
9139;BME280;4604;48.616;9.548;2022-10-23T08:53:02;96744.41;;;15.14;100.00
9139;BME280;4604;48.616;9.548;2022-10-23T08:55:32;96763.47;;;15.18;100.00
9139;BME280;4604;48.616;9.548;2022-10-23T08:58:04;96755.09;;;14.90;100.00
9139;BME280;4604;48.616;9.548;2022-10-23T09:00:32;96751.09;;;14.94;100.00
9139;BME280;4604;48.616;9.548;2022-10-23T09:03:01;96740.72;;;15.15;100.00
9139;BME280;4604;48.616;9.548;2022-10-23T09:05:32;96753.56;;;15.43;100.00
9139;BME280;4604;48.616;9.548;2022-10-23T09:08:17;96765.66;;;15.54;100.00
9139;BME280;4604;48.616;9.548;2022-10-23T09:11:01;96740.84;;;15.61;100.00
9139;BME280;4604;48.616;9.548;2022-10-23T09:16:28;96755.00;;;16.31;98.37
9139;BME280;4604;48.616;9.548;2022-10-23T09:19:09;96763.59;;;16.41;95.44
9139;BME280;4604;48.616;9.548;2022-10-23T09:21:37;96762.75;;;16.41;95.78
9139;BME280;4604;48.616;9.548;2022-10-23T09:24:11;96762.09;;;16.77;93.74
9139;BME280;4604;48.616;9.548;2022-10-23T09:26:39;96759.84;;;16.88;91.81
9139;BME280;4604;48.616;9.548;2022-10-23T09:29:17;96763.25;;;16.97;92.16
9139;BME280;4604;48.616;9.548;2022-10-23T09:31:47;96760.38;;;16.99;93.43
9139;BME280;4604;48.616;9.548;2022-10-23T09:34:17;96754.88;;;17.15;92.99
9139;BME280;4604;48.616;9.548;2022-10-23T09:36:49;96748.50;;;17.16;90.94
9139;BME280;4604;48.616;9.548;2022-10-23T09:39:28;96745.28;;;17.21;92.84
9139;BME280;4604;48.616;9.548;2022-10-23T09:41:56;96739.59;;;17.39;91.61
9139;BME280;4604;48.616;9.548;2022-10-23T09:44:25;96737.91;;;17.38;91.41
9139;BME280;4604;48.616;9.548;2022-10-23T09:46:53;96726.22;;;17.75;90.83
9139;BME280;4604;48.616;9.548;2022-10-23T09:49:22;96721.63;;;17.84;91.37
9139;BME280;4604;48.616;9.548;2022-10-23T09:52:18;96716.84;;;18.22;87.85
9139;BME280;4604;48.616;9.548;2022-10-23T09:54:53;96720.84;;;18.11;88.99
9139;BME280;4604;48.616;9.548;2022-10-23T09:57:23;96724.56;;;18.10;89.68
9139;BME280;4604;48.616;9.548;2022-10-23T09:59:51;96726.97;;;18.27;89.22
9139;BME280;4604;48.616;9.548;2022-10-23T10:02:25;96723.75;;;18.38;88.46
9139;BME280;4604;48.616;9.548;2022-10-23T10:04:53;96717.41;;;18.39;88.25
9139;BME280;4604;48.616;9.548;2022-10-23T10:07:21;96706.63;;;18.54;86.70
9139;BME280;4604;48.616;9.548;2022-10-23T10:09:51;96710.94;;;18.55;88.13
9139;BME280;4604;48.616;9.548;2022-10-23T10:12:38;96711.91;;;18.75;86.52
9139;BME280;4604;48.616;9.548;2022-10-23T10:15:15;96718.97;;;18.83;86.30
9139;BME280;4604;48.616;9.548;2022-10-23T10:17:49;96714.44;;;18.84;86.36
9139;BME280;4604;48.616;9.548;2022-10-23T10:20:41;96701.50;;;18.87;86.82
9139;BME280;4604;48.616;9.548;2022-10-23T10:25:50;96734.38;;;19.16;86.61
9139;BME280;4604;48.616;9.548;2022-10-23T10:28:30;96726.75;;;19.13;83.91
9139;BME280;4604;48.616;9.548;2022-10-23T10:31:08;96708.44;;;19.10;81.70
9139;BME280;4604;48.616;9.548;2022-10-23T10:33:44;96719.41;;;19.28;82.99
9139;BME280;4604;48.616;9.548;2022-10-23T10:36:36;96729.34;;;19.41;78.88
9139;BME280;4604;48.616;9.548;2022-10-23T10:39:11;96738.47;;;19.60;76.84
9139;BME280;4604;48.616;9.548;2022-10-23T10:41:52;96727.72;;;19.46;76.42
9139;BME280;4604;48.616;9.548;2022-10-23T10:44:37;96723.94;;;19.76;73.29
9139;BME280;4604;48.616;9.548;2022-10-23T10:47:17;96711.56;;;19.68;74.74
9139;BME280;4604;48.616;9.548;2022-10-23T10:49:54;96712.41;;;19.75;75.84
9139;BME280;4604;48.616;9.548;2022-10-23T10:52:32;96704.00;;;19.85;75.36
9139;BME280;4604;48.616;9.548;2022-10-23T10:55:12;96702.94;;;19.79;75.91
9139;BME280;4604;48.616;9.548;2022-10-23T10:57:44;96690.38;;;19.86;76.29
9139;BME280;4604;48.616;9.548;2022-10-23T11:00:14;96694.28;;;19.84;78.34
9139;BME280;4604;48.616;9.548;2022-10-23T11:02:44;96693.59;;;19.62;79.59
9139;BME280;4604;48.616;9.548;2022-10-23T11:05:17;96689.50;;;19.66;82.17
9139;BME280;4604;48.616;9.548;2022-10-23T11:07:53;96699.09;;;19.47;82.49
9139;BME280;4604;48.616;9.548;2022-10-23T11:10:20;96697.25;;;19.48;81.85
9139;BME280;4604;48.616;9.548;2022-10-23T11:12:50;96702.63;;;19.54;81.91
9139;BME280;4604;48.616;9.548;2022-10-23T11:15:19;96690.28;;;19.53;80.49
9139;BME280;4604;48.616;9.548;2022-10-23T11:17:50;96696.91;;;19.64;80.04
9139;BME280;4604;48.616;9.548;2022-10-23T11:20:30;96675.13;;;19.74;80.07
9139;BME280;4604;48.616;9.548;2022-10-23T11:23:08;96691.41;;;19.79;79.97
9139;BME280;4604;48.616;9.548;2022-10-23T11:25:52;96676.78;;;19.81;80.07
9139;BME280;4604;48.616;9.548;2022-10-23T11:28:38;96692.88;;;19.88;81.58
9139;BME280;4604;48.616;9.548;2022-10-23T11:31:17;96685.81;;;19.74;79.97
9139;BME280;4604;48.616;9.548;2022-10-23T11:34:00;96673.69;;;19.78;81.27
9139;BME280;4604;48.616;9.548;2022-10-23T11:36:45;96661.91;;;19.72;81.92
9139;BME280;4604;48.616;9.548;2022-10-23T11:39:19;96669.13;;;19.72;81.75
9139;BME280;4604;48.616;9.548;2022-10-23T11:41:52;96665.41;;;19.73;82.83
9139;BME280;4604;48.616;9.548;2022-10-23T11:44:37;96661.06;;;19.65;83.64
9139;BME280;4604;48.616;9.548;2022-10-23T11:47:05;96659.84;;;19.67;84.88
9139;BME280;4604;48.616;9.548;2022-10-23T11:49:50;96641.50;;;19.64;86.03
9139;BME280;4604;48.616;9.548;2022-10-23T11:52:22;96630.81;;;19.71;86.96
9139;BME280;4604;48.616;9.548;2022-10-23T11:55:00;96618.44;;;19.70;88.23
9139;BME280;4604;48.616;9.548;2022-10-23T11:57:27;96614.97;;;19.89;89.08
9139;BME280;4604;48.616;9.548;2022-10-23T11:59:56;96603.00;;;19.92;87.43
9139;BME280;4604;48.616;9.548;2022-10-23T12:02:29;96616.81;;;20.16;86.03
9139;BME280;4604;48.616;9.548;2022-10-23T12:05:00;96607.72;;;20.37;81.05
9139;BME280;4604;48.616;9.548;2022-10-23T12:07:30;96606.69;;;20.44;75.51
9139;BME280;4604;48.616;9.548;2022-10-23T12:09:59;96609.97;;;20.66;71.25
9139;BME280;4604;48.616;9.548;2022-10-23T12:12:32;96605.53;;;20.92;68.96
9139;BME280;4604;48.616;9.548;2022-10-23T12:15:20;96601.13;;;21.11;66.55
9139;BME280;4604;48.616;9.548;2022-10-23T12:17:48;96599.16;;;21.31;64.80
9139;BME280;4604;48.616;9.548;2022-10-23T12:20:35;96601.94;;;21.56;59.69
9139;BME280;4604;48.616;9.548;2022-10-23T12:23:36;96599.72;;;21.78;56.79
9139;BME280;4604;48.616;9.548;2022-10-23T12:26:16;96593.13;;;21.99;54.48
9139;BME280;4604;48.616;9.548;2022-10-23T12:28:50;96592.56;;;22.16;53.71
9139;BME280;4604;48.616;9.548;2022-10-23T12:31:32;96602.75;;;22.39;51.75
9139;BME280;4604;48.616;9.548;2022-10-23T12:34:13;96594.06;;;22.55;51.63
9139;BME280;4604;48.616;9.548;2022-10-23T12:36:51;96591.25;;;22.69;50.98
9139;BME280;4604;48.616;9.548;2022-10-23T12:39:26;96586.91;;;22.68;50.20
9139;BME280;4604;48.616;9.548;2022-10-23T12:41:54;96583.31;;;22.74;50.96
9139;BME280;4604;48.616;9.548;2022-10-23T12:44:22;96579.81;;;22.73;50.81
9139;BME280;4604;48.616;9.548;2022-10-23T12:46:54;96576.88;;;22.75;51.23
9139;BME280;4604;48.616;9.548;2022-10-23T12:49:23;96569.66;;;22.75;49.50
9139;BME280;4604;48.616;9.548;2022-10-23T12:51:54;96569.22;;;22.78;47.97
9139;BME280;4604;48.616;9.548;2022-10-23T12:54:21;96550.97;;;22.80;49.00
9139;BME280;4604;48.616;9.548;2022-10-23T12:56:48;96571.00;;;23.03;48.76
9139;BME280;4604;48.616;9.548;2022-10-23T12:59:19;96558.41;;;23.15;49.54
9139;BME280;4604;48.616;9.548;2022-10-23T13:01:46;96548.63;;;23.33;47.93
9139;BME280;4604;48.616;9.548;2022-10-23T13:04:21;96537.78;;;23.39;48.39
9139;BME280;4604;48.616;9.548;2022-10-23T13:06:49;96530.53;;;23.52;47.71
9139;BME280;4604;48.616;9.548;2022-10-23T13:09:22;96537.47;;;23.59;48.08
9139;BME280;4604;48.616;9.548;2022-10-23T13:11:50;96528.81;;;23.69;47.27
9139;BME280;4604;48.616;9.548;2022-10-23T13:14:32;96518.78;;;23.76;47.29
9139;BME280;4604;48.616;9.548;2022-10-23T13:17:01;96516.69;;;23.78;45.21
9139;BME280;4604;48.616;9.548;2022-10-23T13:19:29;96506.81;;;23.84;45.41
9139;BME280;4604;48.616;9.548;2022-10-23T13:21:56;96518.53;;;23.89;42.80
9139;BME280;4604;48.616;9.548;2022-10-23T13:24:25;96524.06;;;23.83;43.50
9139;BME280;4604;48.616;9.548;2022-10-23T13:26:53;96521.94;;;23.85;44.20
9139;BME280;4604;48.616;9.548;2022-10-23T13:29:23;96516.53;;;23.85;44.38
9139;BME280;4604;48.616;9.548;2022-10-23T13:31:52;96511.53;;;23.88;44.13
9139;BME280;4604;48.616;9.548;2022-10-23T13:34:26;96525.56;;;23.79;44.32
9139;BME280;4604;48.616;9.548;2022-10-23T13:37:00;96515.69;;;23.61;44.84
9139;BME280;4604;48.616;9.548;2022-10-23T13:39:29;96516.25;;;23.51;45.51
9139;BME280;4604;48.616;9.548;2022-10-23T13:42:00;96501.66;;;23.28;45.96
9139;BME280;4604;48.616;9.548;2022-10-23T13:44:27;96517.00;;;23.28;45.93